createdAt,value
2022-09-14T00:01:25.199Z,101159.00
2022-09-14T00:03:59.581Z,101164.06
2022-09-14T00:06:27.438Z,101158.22
2022-09-14T00:08:55.397Z,101168.50
2022-09-14T00:11:25.249Z,101158.06
2022-09-14T00:13:53.087Z,101153.81
2022-09-14T00:16:27.081Z,101159.19
2022-09-14T00:18:56.243Z,101147.97
2022-09-14T00:21:24.225Z,101141.78
2022-09-14T00:23:51.050Z,101147.81
2022-09-14T00:26:20.660Z,101142.47
2022-09-14T00:28:50.539Z,101146.22
2022-09-14T00:31:18.579Z,101133.16
2022-09-14T00:33:48.287Z,101128.88
2022-09-14T00:36:18.267Z,101128.09
2022-09-14T00:38:45.929Z,101123.03
2022-09-14T00:41:18.458Z,101113.41
2022-09-14T00:44:02.495Z,101111.81
2022-09-14T00:46:31.713Z,101111.81
2022-09-14T00:49:02.299Z,101112.59
2022-09-14T00:51:31.790Z,101100.63
2022-09-14T00:53:59.047Z,101104.41
2022-09-14T00:56:26.407Z,101102.03
2022-09-14T00:58:55.328Z,101098.88
2022-09-14T01:01:22.720Z,101098.88
2022-09-14T01:03:49.528Z,101094.59
2022-09-14T01:06:48.285Z,101090.03
2022-09-14T01:09:35.954Z,101095.41
2022-09-14T01:12:14.388Z,101083.41
2022-09-14T01:15:02.376Z,101083.72
2022-09-14T01:18:01.492Z,101084.50
2022-09-14T01:20:35.637Z,101066.84
2022-09-14T01:23:41.880Z,101063.34
2022-09-14T01:26:40.786Z,101070.94
2022-09-14T01:29:26.629Z,101080.41
2022-09-14T01:32:04.295Z,101071.59
2022-09-14T01:34:37.520Z,101073.50
2022-09-14T01:37:14.325Z,101061.94
2022-09-14T01:39:46.260Z,101066.53
2022-09-14T01:42:14.851Z,101065.44
2022-09-14T01:44:45.422Z,101064.16
2022-09-14T01:47:19.917Z,101060.22
2022-09-14T01:49:52.611Z,101061.00
2022-09-14T01:52:24.242Z,101062.91
2022-09-14T01:55:01.483Z,101050.16
2022-09-14T01:57:37.381Z,101053.91
2022-09-14T02:00:10.811Z,101051.88
2022-09-14T02:02:46.753Z,101050.00
2022-09-14T02:05:21.168Z,101052.69
2022-09-14T02:07:47.812Z,101046.53
2022-09-14T02:10:16.478Z,101045.41
2022-09-14T02:12:43.891Z,101035.78
2022-09-14T02:15:12.978Z,101040.34
2022-09-14T02:17:40.126Z,101038.78
2022-09-14T02:20:12.054Z,101033.72
2022-09-14T02:22:38.799Z,101029.94
2022-09-14T02:25:05.794Z,101028.34
2022-09-14T02:27:32.438Z,101032.16
2022-09-14T02:29:59.420Z,101031.34
2022-09-14T02:32:31.487Z,101023.66
2022-09-14T02:35:23.677Z,101028.22
2022-09-14T02:38:09.620Z,101025.06
2022-09-14T02:40:50.243Z,101019.56
2022-09-14T02:43:40.353Z,101012.59
2022-09-14T02:46:12.673Z,101006.78
2022-09-14T02:48:48.557Z,101007.13
2022-09-14T02:51:30.239Z,101007.44
2022-09-14T02:54:18.539Z,101007.13
2022-09-14T02:56:45.718Z,100999.84
2022-09-14T02:59:12.691Z,100997.16
2022-09-14T03:01:39.586Z,100999.38
2022-09-14T03:04:06.270Z,100997.78
2022-09-14T03:06:32.850Z,100994.63
2022-09-14T03:08:59.444Z,100987.72
2022-09-14T03:11:26.235Z,100987.72
2022-09-14T03:13:53.893Z,100987.25
2022-09-14T03:16:21.381Z,100990.25
2022-09-14T03:18:48.227Z,101002.09
2022-09-14T03:21:16.640Z,100998.59
2022-09-14T03:23:48.152Z,101000.50
2022-09-14T03:26:20.446Z,100988.53
2022-09-14T03:28:51.875Z,100985.38
2022-09-14T03:31:18.895Z,100973.38
2022-09-14T03:33:45.732Z,100972.56
2022-09-14T03:36:17.559Z,100964.06
2022-09-14T03:38:50.058Z,100965.50
2022-09-14T03:41:17.420Z,100972.00
2022-09-14T03:43:44.848Z,100968.19
2022-09-14T03:46:17.811Z,100982.72
2022-09-14T03:48:44.851Z,100970.41
2022-09-14T03:51:14.244Z,100965.03
2022-09-14T03:53:41.922Z,100960.44
2022-09-14T03:56:11.532Z,100954.63
2022-09-14T03:58:38.530Z,100953.38
2022-09-14T04:01:09.928Z,100949.91
2022-09-14T04:03:37.357Z,100950.22
2022-09-14T04:06:05.477Z,100942.50
2022-09-14T04:08:34.767Z,100949.28
2022-09-14T04:11:06.790Z,100948.03
2022-09-14T04:13:33.632Z,100934.94
2022-09-14T04:16:01.299Z,100950.25
2022-09-14T04:18:28.084Z,100940.63
2022-09-14T04:20:56.672Z,100949.00
2022-09-14T04:23:23.348Z,100938.25
2022-09-14T04:25:49.947Z,100943.16
2022-09-14T04:28:20.502Z,100945.06
2022-09-14T04:31:01.462Z,100942.22
2022-09-14T04:33:33.547Z,100936.84
2022-09-14T04:36:04.676Z,100935.63
2022-09-14T04:38:32.942Z,100932.78
2022-09-14T04:40:59.868Z,100943.50
2022-09-14T04:43:28.191Z,100934.34
2022-09-14T04:46:02.630Z,100935.44
2022-09-14T04:48:34.063Z,100931.66
2022-09-14T04:51:07.724Z,100923.59
2022-09-14T04:53:36.187Z,100923.13
2022-09-14T04:56:04.780Z,100930.72
2022-09-14T04:58:32.910Z,100918.75
2022-09-14T05:01:04.132Z,100903.78
2022-09-14T05:03:30.671Z,100915.59
2022-09-14T05:06:02.823Z,100910.53
2022-09-14T05:08:29.570Z,100925.34
2022-09-14T05:10:57.313Z,100928.66
2022-09-14T05:13:24.119Z,100926.00
2022-09-14T05:15:51.367Z,100927.91
2022-09-14T05:18:21.284Z,100927.56
2022-09-14T05:20:47.939Z,100929.75
2022-09-14T05:23:14.588Z,100927.09
2022-09-14T05:25:41.095Z,100931.66
2022-09-14T05:28:08.762Z,100932.31
2022-09-14T05:30:40.579Z,100933.09
2022-09-14T05:33:07.156Z,100940.00
2022-09-14T05:35:34.757Z,100939.22
2022-09-14T05:38:02.523Z,100934.53
2022-09-14T05:40:29.088Z,100936.41
2022-09-14T05:42:57.319Z,100937.19
2022-09-14T05:45:23.808Z,100933.72
2022-09-14T05:47:50.416Z,100934.84
2022-09-14T05:50:17.017Z,100931.38
2022-09-14T05:52:43.690Z,100927.09
2022-09-14T05:55:10.513Z,100932.94
2022-09-14T05:57:37.082Z,100917.16
2022-09-14T06:00:04.875Z,100927.09
2022-09-14T06:02:31.668Z,100923.34
2022-09-14T06:04:58.335Z,100922.84
2022-09-14T06:07:25.009Z,100930.44
2022-09-14T06:09:52.641Z,100933.56
2022-09-14T06:12:19.377Z,100929.31
2022-09-14T06:14:45.877Z,100931.22
2022-09-14T06:17:13.689Z,100932.28
2022-09-14T06:19:40.175Z,100930.91
2022-09-14T06:22:07.122Z,100934.66
2022-09-14T06:24:33.758Z,100938.13
2022-09-14T06:27:00.289Z,100936.25
2022-09-14T06:29:27.214Z,100942.41
2022-09-14T06:31:54.261Z,100938.59
2022-09-14T06:34:20.829Z,100939.88
2022-09-14T06:36:47.587Z,100939.22
2022-09-14T06:39:14.190Z,100936.25
2022-09-14T06:41:40.695Z,100929.44
2022-09-14T06:44:07.332Z,100934.50
2022-09-14T06:46:35.598Z,100934.50
2022-09-14T06:49:10.349Z,100929.94
2022-09-14T06:51:41.997Z,100931.19
2022-09-14T06:54:10.139Z,100934.03
2022-09-14T06:56:39.506Z,100934.50
2022-09-14T06:59:07.819Z,100928.03
2022-09-14T07:01:35.247Z,100933.09
2022-09-14T07:04:02.301Z,100935.44
2022-09-14T07:06:32.668Z,100933.09
2022-09-14T07:08:59.472Z,100924.72
2022-09-14T07:11:28.032Z,100919.38
2022-09-14T07:13:58.857Z,100926.28
2022-09-14T07:16:28.288Z,100924.06
2022-09-14T07:19:01.832Z,100930.56
2022-09-14T07:21:29.923Z,100931.34
2022-09-14T07:23:56.818Z,100929.13
2022-09-14T07:26:27.229Z,100925.34
2022-09-14T07:28:56.984Z,100922.34
2022-09-14T07:31:26.722Z,100933.22
2022-09-14T07:33:59.387Z,100929.75
2022-09-14T07:36:29.518Z,100932.13
2022-09-14T07:38:59.640Z,100924.53
2022-09-14T07:41:28.859Z,100913.47
2022-09-14T07:44:01.141Z,100923.91
2022-09-14T07:46:29.861Z,100921.22
2022-09-14T07:48:58.829Z,100921.38
2022-09-14T07:51:26.950Z,100917.56
2022-09-14T07:53:53.830Z,100923.41
2022-09-14T07:56:21.938Z,100919.94
2022-09-14T07:58:54.000Z,100919.31
2022-09-14T08:01:23.357Z,100926.22
2022-09-14T08:03:50.666Z,100917.53
2022-09-14T08:06:23.598Z,100916.13
2022-09-14T08:08:52.560Z,100916.91
2022-09-14T08:11:31.865Z,100918.16
2022-09-14T08:14:06.427Z,100925.09
2022-09-14T08:16:35.111Z,100913.72
2022-09-14T08:19:07.970Z,100921.44
2022-09-14T08:21:35.874Z,100919.22
2022-09-14T08:24:04.232Z,100916.22
2022-09-14T08:26:34.032Z,100912.91
2022-09-14T08:29:00.893Z,100909.56
2022-09-14T08:31:28.780Z,100910.03
2022-09-14T08:34:01.371Z,100913.97
2022-09-14T08:36:33.424Z,100912.53
2022-09-14T08:39:00.991Z,100902.25
2022-09-14T08:41:44.498Z,100907.78
2022-09-14T08:44:21.709Z,100892.13
2022-09-14T08:46:54.845Z,100890.69
2022-09-14T08:49:39.976Z,100887.34
2022-09-14T08:52:21.018Z,100888.28
2022-09-14T08:54:56.100Z,100889.53
2022-09-14T09:11:40.850Z,100877.09
2022-09-14T09:14:20.799Z,100885.59
2022-09-14T09:16:51.594Z,100885.28
2022-09-14T09:19:28.409Z,100877.72
2022-09-14T09:21:56.141Z,100881.66
2022-09-14T09:24:37.514Z,100884.78
2022-09-14T09:27:14.058Z,100885.25
2022-09-14T09:29:41.401Z,100890.97
2022-09-14T09:32:16.840Z,100891.91
2022-09-14T09:34:43.478Z,100893.59
2022-09-14T09:37:21.499Z,100881.41
2022-09-14T09:39:48.749Z,100880.75
2022-09-14T09:42:24.587Z,100875.94
2022-09-14T09:45:03.658Z,100874.63
2022-09-14T09:47:39.399Z,100876.00
2022-09-14T09:50:21.615Z,100883.88
2022-09-14T09:52:57.459Z,100877.19
2022-09-14T09:55:28.311Z,100878.88
2022-09-14T09:57:55.215Z,100880.56
2022-09-14T10:00:27.860Z,100879.88
2022-09-14T10:02:55.803Z,100884.28
2022-09-14T10:05:32.968Z,100884.41
2022-09-14T10:08:02.410Z,100879.47
2022-09-14T10:10:44.078Z,100879.47
2022-09-14T10:13:29.092Z,100886.13
2022-09-14T10:16:11.794Z,100878.50
2022-09-14T10:18:48.990Z,100888.13
2022-09-14T10:21:18.021Z,100878.59
2022-09-14T10:23:45.618Z,100877.50
2022-09-14T10:26:18.943Z,100869.44
2022-09-14T10:28:50.760Z,100875.25
2022-09-14T10:31:19.822Z,100868.75
2022-09-14T10:33:48.270Z,100870.66
2022-09-14T10:36:30.694Z,100873.03
2022-09-14T10:39:26.564Z,100861.16
2022-09-14T10:42:20.778Z,100862.72
2022-09-14T10:45:00.380Z,100859.72
2022-09-14T10:48:13.212Z,100853.97
2022-09-14T10:50:54.657Z,100849.84
2022-09-14T10:53:57.461Z,100856.13
2022-09-14T10:56:33.655Z,100852.31
2022-09-14T10:59:28.893Z,100856.72
2022-09-14T11:02:14.491Z,100868.38
2022-09-14T11:04:49.000Z,100855.38
2022-09-14T11:07:47.835Z,100861.53
2022-09-14T11:10:30.161Z,100862.00
2022-09-14T11:13:07.606Z,100864.03
2022-09-14T11:15:58.578Z,100855.72
2022-09-14T11:18:38.693Z,100861.22
2022-09-14T11:21:42.625Z,100868.72
2022-09-14T11:24:38.442Z,100868.53
2022-09-14T11:27:16.292Z,100869.75
2022-09-14T11:29:55.666Z,100869.88
2022-09-14T11:32:45.894Z,100871.09
2022-09-14T11:35:19.752Z,100870.41
2022-09-14T11:38:10.897Z,100873.56
2022-09-14T11:40:45.648Z,100873.22
2022-09-14T11:43:33.204Z,100872.13
2022-09-14T11:46:08.682Z,100866.38
2022-09-14T11:49:03.740Z,100862.69
2022-09-14T11:51:42.093Z,100859.63
2022-09-14T11:54:22.572Z,100861.66
2022-09-14T11:56:55.957Z,100859.75
2022-09-14T11:59:44.642Z,100862.13
2022-09-14T12:02:23.249Z,100864.44
2022-09-14T12:05:11.294Z,100862.56
2022-09-14T12:07:46.044Z,100855.59
2022-09-14T12:10:18.038Z,100860.97
2022-09-14T12:13:09.279Z,100849.09
2022-09-14T12:15:37.269Z,100849.09
2022-09-14T12:18:13.516Z,100849.09
2022-09-14T12:21:05.505Z,100839.56
2022-09-14T12:23:42.411Z,100848.06
2022-09-14T12:26:20.362Z,100850.06
2022-09-14T12:28:49.353Z,100847.06
2022-09-14T12:31:38.449Z,100843.34
2022-09-14T12:34:11.420Z,100848.84
2022-09-14T12:36:40.465Z,100845.47
2022-09-14T12:39:20.416Z,100842.53
2022-09-14T12:41:52.254Z,100839.13
2022-09-14T12:44:38.686Z,100832.31
2022-09-14T12:47:29.189Z,100826.91
2022-09-14T12:50:01.070Z,100820.97
2022-09-14T12:52:39.096Z,100819.84
2022-09-14T12:55:32.095Z,100819.63
2022-09-14T12:58:09.490Z,100815.59
2022-09-14T13:01:06.485Z,100805.00
2022-09-14T13:03:56.212Z,100802.94
2022-09-14T13:06:26.984Z,100805.81
2022-09-14T13:08:56.578Z,100804.44
2022-09-14T13:11:31.014Z,100797.78
2022-09-14T13:13:59.275Z,100792.22
2022-09-14T13:16:38.798Z,100806.69
2022-09-14T13:19:18.761Z,100801.88
2022-09-14T13:21:50.660Z,100794.84
2022-09-14T13:24:48.661Z,100788.94
2022-09-14T13:27:22.005Z,100794.63
2022-09-14T13:29:57.161Z,100795.91
2022-09-14T13:32:25.259Z,100786.75
2022-09-14T13:34:52.876Z,100786.84
2022-09-14T13:37:21.136Z,100794.16
2022-09-14T13:39:54.629Z,100783.00
2022-09-14T13:42:22.836Z,100788.84
2022-09-14T13:44:52.894Z,100789.34
2022-09-14T13:47:22.740Z,100788.22
2022-09-14T13:49:52.142Z,100781.50
2022-09-14T13:52:21.100Z,100783.53
2022-09-14T13:54:53.920Z,100778.56
2022-09-14T13:57:23.732Z,100784.00
2022-09-14T14:00:16.312Z,100780.63
2022-09-14T14:02:50.650Z,100777.22
2022-09-14T14:05:35.246Z,100780.28
2022-09-14T14:08:04.900Z,100779.13
2022-09-14T14:10:33.627Z,100772.53
2022-09-14T14:13:02.836Z,100774.44
2022-09-14T14:15:42.217Z,100762.78
2022-09-14T14:18:40.392Z,100772.72
2022-09-14T14:21:26.878Z,100764.88
2022-09-14T14:24:29.753Z,100762.13
2022-09-14T14:26:58.411Z,100761.19
2022-09-14T14:29:25.813Z,100761.88
2022-09-14T14:31:54.989Z,100755.69
2022-09-14T14:34:29.513Z,100750.72
2022-09-14T14:36:56.489Z,100747.25
2022-09-14T14:39:25.244Z,100745.25
2022-09-14T14:41:52.865Z,100742.91
2022-09-14T14:44:23.617Z,100744.81
2022-09-14T14:46:51.470Z,100744.47
2022-09-14T14:49:20.442Z,100740.72
2022-09-14T14:51:48.206Z,100743.50
2022-09-14T14:54:18.756Z,100728.88
2022-09-14T14:56:49.727Z,100729.31
2022-09-14T14:59:36.520Z,100727.09
2022-09-14T15:02:05.032Z,100727.97
2022-09-14T15:04:33.210Z,100720.72
2022-09-14T15:06:59.881Z,100717.41
2022-09-14T15:09:29.695Z,100720.59
2022-09-14T15:11:56.263Z,100723.38
2022-09-14T15:14:27.171Z,100713.78
2022-09-14T15:16:58.188Z,100718.13
2022-09-14T15:19:25.784Z,100705.84
2022-09-14T15:21:52.325Z,100706.63
2022-09-14T15:24:18.950Z,100709.31
2022-09-14T15:26:45.492Z,100707.41
2022-09-14T15:29:17.694Z,100702.34
2022-09-14T15:31:44.451Z,100703.94
2022-09-14T15:34:10.979Z,100705.78
2022-09-14T15:36:52.486Z,100701.38
2022-09-14T15:39:25.009Z,100705.91
2022-09-14T15:41:52.683Z,100706.16
2022-09-14T15:44:22.356Z,100695.75
2022-09-14T15:46:49.435Z,100705.25
2022-09-14T15:49:21.973Z,100720.25
2022-09-14T15:51:52.394Z,100716.31
2022-09-14T15:54:23.174Z,100718.16
2022-09-14T15:56:52.120Z,100722.78
2022-09-14T15:59:19.585Z,100718.16
2022-09-14T16:01:48.276Z,100713.13
2022-09-14T16:04:16.743Z,100716.94
2022-09-14T16:06:43.596Z,100721.91
2022-09-14T16:09:12.041Z,100723.66
2022-09-14T16:11:39.752Z,100731.69
2022-09-14T16:14:07.864Z,100736.66
2022-09-14T16:16:35.942Z,100739.34
2022-09-14T16:19:07.607Z,100747.03
2022-09-14T16:21:35.210Z,100745.00
2022-09-14T16:24:07.322Z,100745.34
2022-09-14T16:26:36.943Z,100749.50
2022-09-14T16:29:05.789Z,100752.13
2022-09-14T16:31:34.679Z,100761.34
2022-09-14T16:34:27.596Z,100754.75
2022-09-14T16:36:55.421Z,100749.69
2022-09-14T16:39:27.178Z,100748.13
2022-09-14T16:41:57.261Z,100748.72
2022-09-14T16:44:27.727Z,100750.66
2022-09-14T16:46:57.545Z,100748.28
2022-09-14T16:49:27.578Z,100750.50
2022-09-14T16:51:55.606Z,100743.84
2022-09-14T16:54:24.481Z,100749.19
2022-09-14T16:56:51.318Z,100749.88
2022-09-14T16:59:19.373Z,100752.94
2022-09-14T17:01:50.783Z,100747.53
2022-09-14T17:04:21.889Z,100754.03
2022-09-14T17:06:50.450Z,100749.78
2022-09-14T17:09:26.716Z,100752.41
2022-09-14T17:11:54.722Z,100751.09
2022-09-14T17:14:24.680Z,100752.81
2022-09-14T17:16:51.722Z,100761.50
2022-09-14T17:19:18.598Z,100766.34
2022-09-14T17:21:47.751Z,100763.91
2022-09-14T17:24:18.419Z,100769.19
2022-09-14T17:26:45.648Z,100769.09
2022-09-14T17:29:12.350Z,100770.56
2022-09-14T17:31:42.059Z,100770.81
2022-09-14T17:34:10.621Z,100772.72
2022-09-14T17:36:38.218Z,100777.31
2022-09-14T17:39:11.368Z,100780.31
2022-09-14T17:41:39.215Z,100789.53
2022-09-14T17:44:07.226Z,100789.09
2022-09-14T17:46:41.472Z,100796.75
2022-09-14T17:49:14.024Z,100800.13
2022-09-14T17:51:45.250Z,100793.50
2022-09-14T17:54:14.447Z,100804.63
2022-09-14T17:56:40.958Z,100804.63
2022-09-14T17:59:14.447Z,100804.63
2022-09-14T18:01:41.273Z,100804.19
2022-09-14T18:04:12.170Z,100803.75
2022-09-14T18:06:44.851Z,100808.69
2022-09-14T18:09:16.778Z,100807.81
2022-09-14T18:11:45.676Z,100808.47
2022-09-14T18:14:14.597Z,100812.28
2022-09-14T18:16:43.043Z,100817.56
2022-09-14T18:19:10.116Z,100811.03
2022-09-14T18:21:36.845Z,100819.81
2022-09-14T18:24:03.935Z,100817.00
2022-09-14T18:26:30.845Z,100821.94
2022-09-14T18:28:58.809Z,100820.41
2022-09-14T18:31:27.095Z,100826.44
2022-09-14T18:34:01.485Z,100826.00
2022-09-14T18:36:30.148Z,100828.25
2022-09-14T18:38:58.070Z,100827.00
2022-09-14T18:41:25.389Z,100833.88
2022-09-14T18:43:54.428Z,100821.88
2022-09-14T18:46:25.917Z,100831.38
2022-09-14T18:48:56.707Z,100832.41
2022-09-14T18:51:23.614Z,100838.94
2022-09-14T18:54:05.891Z,100843.84
2022-09-14T18:56:36.167Z,100833.31
2022-09-14T18:59:04.580Z,100835.91
2022-09-14T19:01:32.577Z,100831.97
2022-09-14T19:04:02.847Z,100824.25
2022-09-14T19:06:29.589Z,100822.22
2022-09-14T19:08:56.586Z,100832.06
2022-09-14T19:11:26.855Z,100831.94
2022-09-14T19:14:09.362Z,100834.19
2022-09-14T19:16:40.902Z,100835.97
2022-09-14T19:19:08.907Z,100835.03
2022-09-14T19:21:35.526Z,100839.97
2022-09-14T19:24:05.177Z,100844.56
2022-09-14T19:26:42.595Z,100836.84
2022-09-14T19:29:11.770Z,100839.88
2022-09-14T19:31:38.528Z,100845.25
2022-09-14T19:34:05.777Z,100839.75
2022-09-14T19:36:34.864Z,100846.28
2022-09-14T19:39:02.668Z,100856.22
2022-09-14T19:41:32.176Z,100860.81
2022-09-14T19:43:59.408Z,100843.44
2022-09-14T19:46:26.719Z,100843.44
2022-09-14T19:48:53.924Z,100837.63
2022-09-14T19:51:25.216Z,100842.56
2022-09-14T19:53:54.323Z,100846.34
2022-09-14T19:56:25.407Z,100851.25
2022-09-14T19:58:54.304Z,100843.56
2022-09-14T20:01:23.121Z,100844.66
2022-09-14T20:03:50.497Z,100840.75
2022-09-14T20:06:21.161Z,100856.75
2022-09-14T20:08:49.551Z,100848.53
2022-09-14T20:11:20.066Z,100856.84
2022-09-14T20:13:50.782Z,100857.50
2022-09-14T20:16:20.692Z,100857.06
2022-09-14T20:18:49.045Z,100858.94
2022-09-14T20:21:18.728Z,100857.38
2022-09-14T20:24:11.491Z,100851.88
2022-09-14T20:26:33.052Z,100852.53
2022-09-14T20:29:01.264Z,100853.19
2022-09-14T20:31:29.440Z,100858.78
2022-09-14T20:33:57.417Z,100858.06
2022-09-14T20:36:28.260Z,100861.28
2022-09-14T20:38:57.296Z,100868.75
2022-09-14T20:41:26.736Z,100868.97
2022-09-14T20:43:54.172Z,100866.81
2022-09-14T20:46:25.037Z,100868.06
2022-09-14T20:48:52.669Z,100867.16
2022-09-14T20:51:20.882Z,100873.06
2022-09-14T20:53:48.549Z,100869.44
2022-09-14T20:56:19.883Z,100872.91
2022-09-14T20:58:47.241Z,100879.38
2022-09-14T21:01:19.458Z,100877.34
2022-09-14T21:03:47.936Z,100870.88
2022-09-14T21:06:18.649Z,100879.25
2022-09-14T21:08:45.698Z,100876.13
2022-09-14T21:11:16.774Z,100885.72
2022-09-14T21:13:44.271Z,100885.28
2022-09-14T21:16:16.422Z,100888.72
2022-09-14T21:18:44.592Z,100880.22
2022-09-14T21:21:14.423Z,100879.91
2022-09-14T21:23:41.601Z,100885.59
2022-09-14T21:26:09.810Z,100893.06
2022-09-14T21:28:37.839Z,100898.59
2022-09-14T21:31:04.333Z,100891.84
2022-09-14T21:33:33.703Z,100897.88
2022-09-14T21:36:08.262Z,100889.97
2022-09-14T21:38:37.215Z,100893.31
2022-09-14T21:41:07.567Z,100895.09
2022-09-14T21:43:38.855Z,100891.78
2022-09-14T21:46:06.313Z,100892.44
2022-09-14T21:48:33.399Z,100891.63
2022-09-14T21:51:07.444Z,100879.81
2022-09-14T21:53:34.602Z,100882.03
2022-09-14T21:56:06.652Z,100886.16
2022-09-14T21:58:33.222Z,100888.38
2022-09-14T22:01:01.341Z,100891.03
2022-09-14T22:03:28.364Z,100889.47
2022-09-14T22:06:02.186Z,100889.97
2022-09-14T22:08:31.211Z,100886.53
2022-09-14T22:11:12.595Z,100881.34
2022-09-14T22:13:40.203Z,100886.41
2022-09-14T22:16:11.555Z,100895.41
2022-09-14T22:18:39.778Z,100899.81
2022-09-14T22:21:07.039Z,100898.06
2022-09-14T22:23:35.029Z,100896.34
2022-09-14T22:26:07.375Z,100907.72
2022-09-14T22:28:33.883Z,100901.41
2022-09-14T22:31:02.060Z,100904.72
2022-09-14T22:33:29.048Z,100903.28
2022-09-14T22:35:57.872Z,100892.56
2022-09-14T22:38:26.292Z,100883.13
2022-09-14T22:40:58.512Z,100899.53
2022-09-14T22:43:26.238Z,100894.16
2022-09-14T22:45:53.059Z,100889.41
2022-09-14T22:48:20.660Z,100896.22
2022-09-14T22:50:49.321Z,100904.56
2022-09-14T22:53:16.815Z,100903.47
2022-09-14T22:55:44.836Z,100907.25
2022-09-14T22:58:14.075Z,100915.28
2022-09-14T23:00:46.555Z,100903.31
2022-09-14T23:03:16.078Z,100907.41
2022-09-14T23:05:55.574Z,100909.63
2022-09-14T23:08:22.424Z,100911.53
2022-09-14T23:10:50.094Z,100908.84
2022-09-14T23:13:17.306Z,100909.16
2022-09-14T23:15:44.184Z,100917.19
2022-09-14T23:18:11.039Z,100913.91
2022-09-14T23:20:39.047Z,100916.88
2022-09-14T23:23:05.910Z,100918.44
2022-09-14T23:25:36.711Z,100913.09
2022-09-14T23:28:05.265Z,100919.56
2022-09-14T23:30:32.696Z,100920.03
2022-09-14T23:33:00.089Z,100925.69
2022-09-14T23:35:30.094Z,100925.38
2022-09-14T23:37:56.965Z,100924.59
2022-09-14T23:40:23.948Z,100931.06
2022-09-14T23:42:50.812Z,100937.06
2022-09-14T23:45:17.613Z,100939.88
2022-09-14T23:47:45.976Z,100940.50
2022-09-14T23:50:12.631Z,100932.16
2022-09-14T23:52:39.281Z,100928.69
2022-09-14T23:55:08.798Z,100930.25
2022-09-14T23:57:36.594Z,100924.91
